Time;durP1;ratioP1;P1;durP2;ratioP2;P2;SDS_P1;SDS_P2;PMS_P1;PMS_P2;Temp;Humidity;BMP_temperature;BMP_pressure;BME280_temperature;BME280_humidity;BME280_pressure;Samples;Min_cycle;Max_cycle;Signal;HPM_P1;HPM_P2
2021/07/11 00:00:01;;;;;;;4.27;4.07;;;21.70;41.10;;;;;;4964242;28;20433;-81
2021/07/11 00:02:51;;;;;;;5.37;5.03;;;21.70;41.20;;;;;;4992200;28;20819;-81
2021/07/11 00:05:23;;;;;;;4.43;4.20;;;21.70;41.10;;;;;;4995359;28;20449;-81
2021/07/11 00:08:35;;;;;;;4.73;4.33;;;21.70;41.10;;;;;;4994919;28;20563;-81
2021/07/11 00:12:17;;;;;;;5.47;4.97;;;21.70;41.10;;;;;;4990050;28;20858;-80
2021/07/11 00:15:12;;;;;;;4.57;4.37;;;21.70;41.20;;;;;;4921504;29;20861;-81
2021/07/11 00:18:13;;;;;;;5.80;5.30;;;21.70;41.20;;;;;;4937163;29;20527;-81
2021/07/11 00:20:52;;;;;;;4.87;4.60;;;21.70;41.20;;;;;;4934888;29;20476;-81
2021/07/11 00:23:19;;;;;;;5.37;4.97;;;21.70;41.20;;;;;;4928635;29;20535;-82
2021/07/11 00:25:49;;;;;;;4.70;4.40;;;21.70;41.20;;;;;;4918278;29;20428;-81
2021/07/11 00:28:21;;;;;;;4.70;4.40;;;21.70;41.20;;;;;;4913374;29;20522;-81
2021/07/11 00:31:13;;;;;;;4.60;4.30;;;21.70;41.20;;;;;;4937010;29;20915;-82
2021/07/11 00:33:57;;;;;;;4.67;4.40;;;21.60;41.10;;;;;;4922446;29;20432;-81
2021/07/11 00:36:52;;;;;;;4.90;4.60;;;21.70;41.20;;;;;;5002992;28;20454;-82
2021/07/11 00:39:36;;;;;;;4.53;4.23;;;21.60;41.10;;;;;;4995731;28;20509;-82
2021/07/11 00:42:16;;;;;;;4.60;4.30;;;21.60;41.10;;;;;;5023747;28;20432;-82
2021/07/11 00:44:44;;;;;;;4.57;4.37;;;21.70;41.20;;;;;;5023493;28;20930;-81
2021/07/11 00:47:13;;;;;;;4.87;4.57;;;21.60;41.10;;;;;;5023679;28;20508;-81
2021/07/11 00:49:43;;;;;;;4.20;4.00;;;21.60;41.20;;;;;;5039958;28;20475;-81
2021/07/11 00:52:22;;;;;;;4.70;4.40;;;21.70;41.20;;;;;;5040243;28;20455;-82
2021/07/11 00:54:51;;;;;;;4.60;4.40;;;21.60;41.10;;;;;;5026032;28;20447;-81
2021/07/11 00:57:21;;;;;;;4.50;4.30;;;21.60;41.10;;;;;;5024267;28;20919;-82
2021/07/11 00:59:54;;;;;;;4.63;4.30;;;21.60;41.10;;;;;;5037701;28;20529;-81
2021/07/11 01:02:53;;;;;;;4.80;4.60;;;21.60;41.10;;;;;;5009867;28;20420;-81
2021/07/11 01:05:34;;;;;;;4.27;4.03;;;21.60;41.10;;;;;;5033861;28;20432;-81
2021/07/11 01:08:19;;;;;;;5.07;4.77;;;21.60;41.10;;;;;;5008297;28;20472;-81
2021/07/11 01:11:06;;;;;;;4.10;3.90;;;21.60;41.10;;;;;;5019280;28;20462;-81
2021/07/11 01:13:54;;;;;;;4.03;3.83;;;21.60;41.20;;;;;;4983733;28;20424;-82
2021/07/11 01:19:57;;;;;;;4.37;4.07;;;21.60;41.20;;;;;;4998726;28;20427;-81
2021/07/11 01:23:12;;;;;;;3.60;3.40;;;21.60;41.20;;;;;;4998713;28;20427;-81
2021/07/11 01:26:04;;;;;;;4.73;4.43;;;21.60;41.20;;;;;;5028839;28;20515;-81
2021/07/11 01:29:04;;;;;;;4.00;3.70;;;21.60;41.20;;;;;;5015477;28;20464;-81
2021/07/11 01:32:34;;;;;;;4.73;4.43;;;21.60;41.90;;;;;;4978373;28;20406;-81
2021/07/11 01:35:22;;;;;;;4.27;4.07;;;21.60;41.20;;;;;;4982564;28;20431;-81
2021/07/11 01:38:12;;;;;;;4.47;4.23;;;21.60;41.20;;;;;;5017700;28;20440;-82
2021/07/11 01:40:41;;;;;;;3.80;3.60;;;21.60;41.20;;;;;;5033433;28;20416;-82
2021/07/11 01:43:08;;;;;;;3.67;3.47;;;21.60;41.20;;;;;;5038736;28;20432;-81
2021/07/11 01:45:36;;;;;;;4.03;3.83;;;21.60;41.30;;;;;;5038661;28;20767;-82
2021/07/11 01:48:05;;;;;;;4.30;4.10;;;21.60;41.20;;;;;;5022507;28;20507;-81
2021/07/11 01:50:32;;;;;;;4.60;4.40;;;21.60;41.30;;;;;;5037803;28;20438;-81
2021/07/11 01:53:00;;;;;;;4.33;4.13;;;21.60;41.20;;;;;;5038038;28;20780;-81
2021/07/11 01:55:40;;;;;;;4.30;4.00;;;21.60;41.20;;;;;;5021262;28;20423;-81
2021/07/11 01:58:08;;;;;;;4.43;4.13;;;21.60;41.20;;;;;;5037275;28;20511;-81
2021/07/11 02:00:45;;;;;;;4.13;3.93;;;21.60;41.40;;;;;;5005961;28;20432;-81
2021/07/11 02:03:35;;;;;;;4.00;3.80;;;21.60;41.20;;;;;;5037499;28;20423;-81
2021/07/11 02:06:02;;;;;;;3.80;3.60;;;21.60;41.30;;;;;;5019390;28;20540;-81
2021/07/11 02:08:53;;;;;;;4.00;3.80;;;21.60;41.30;;;;;;5035334;28;20476;-81
2021/07/11 02:11:39;;;;;;;4.13;3.93;;;21.60;41.30;;;;;;5003731;28;20423;-81
2021/07/11 02:14:11;;;;;;;4.53;4.27;;;21.50;41.20;;;;;;5032868;28;20849;-81
2021/07/11 02:17:13;;;;;;;3.87;3.67;;;21.50;41.20;;;;;;5032603;28;20451;-81
2021/07/11 02:19:40;;;;;;;3.90;3.70;;;21.50;41.20;;;;;;5017552;28;20474;-81
2021/07/11 02:22:08;;;;;;;4.17;3.97;;;21.50;41.20;;;;;;5021702;28;20432;-82
2021/07/11 02:25:03;;;;;;;4.37;4.07;;;21.50;41.30;;;;;;5037213;28;20423;-81
2021/07/11 02:27:34;;;;;;;3.90;3.70;;;21.60;41.30;;;;;;4982726;28;20453;-81
2021/07/11 02:30:10;;;;;;;4.30;4.10;;;21.50;41.30;;;;;;5016314;28;20428;-80
2021/07/11 02:32:43;;;;;;;3.90;3.70;;;21.50;41.30;;;;;;5036523;28;20424;-81
2021/07/11 02:35:15;;;;;;;4.20;3.90;;;21.50;41.30;;;;;;5002565;28;20455;-81
2021/07/11 02:38:00;;;;;;;3.70;3.50;;;21.50;41.20;;;;;;5031174;28;20444;-81
2021/07/11 02:41:14;;;;;;;4.07;3.87;;;21.50;41.30;;;;;;4998023;28;20428;-81
2021/07/11 02:44:34;;;;;;;3.90;3.70;;;21.50;41.30;;;;;;5014656;28;20455;-80
2021/07/11 02:47:45;;;;;;;3.60;3.40;;;21.50;41.20;;;;;;5012208;28;20496;-80
2021/07/11 02:50:49;;;;;;;4.47;4.17;;;21.50;41.30;;;;;;5024219;28;20452;-80
2021/07/11 02:53:25;;;;;;;4.57;4.27;;;21.50;41.20;;;;;;5014834;28;20483;-80
2021/07/11 02:56:26;;;;;;;3.60;3.40;;;21.50;41.20;;;;;;5012774;28;20408;-81
2021/07/11 02:59:35;;;;;;;3.80;3.60;;;21.50;41.30;;;;;;5013250;28;20443;-81
2021/07/11 03:02:26;;;;;;;3.20;3.10;;;21.50;41.30;;;;;;5024323;28;20629;-80
2021/07/11 03:04:55;;;;;;;4.03;3.83;;;21.50;41.30;;;;;;5018627;28;20447;-81
2021/07/11 03:07:32;;;;;;;4.20;3.90;;;21.50;41.30;;;;;;5020211;28;20468;-81
2021/07/11 03:10:00;;;;;;;3.83;3.63;;;21.50;41.30;;;;;;5020172;28;20487;-81
2021/07/11 03:12:50;;;;;;;3.70;3.50;;;21.50;41.20;;;;;;5019229;28;20985;-80
2021/07/11 03:15:39;;;;;;;3.73;3.53;;;21.50;41.30;;;;;;5001830;28;20423;-80
2021/07/11 03:18:38;;;;;;;3.80;3.50;;;21.50;41.30;;;;;;5012588;28;20490;-80
2021/07/11 03:21:08;;;;;;;2.90;2.80;;;21.50;41.20;;;;;;5017691;28;20420;-80
2021/07/11 03:23:37;;;;;;;3.40;3.20;;;21.50;41.20;;;;;;5016769;28;20492;-80
2021/07/11 03:26:04;;;;;;;4.00;3.80;;;21.50;41.20;;;;;;5031581;28;20415;-80
2021/07/11 03:28:35;;;;;;;3.50;3.37;;;21.50;41.20;;;;;;5014874;28;20487;-80
2021/07/11 03:31:06;;;;;;;3.37;3.20;;;21.50;41.30;;;;;;5031319;28;20542;-81
2021/07/11 03:33:40;;;;;;;3.40;3.20;;;21.50;41.30;;;;;;5000719;28;20436;-81
2021/07/11 03:36:11;;;;;;;3.67;3.47;;;21.50;41.20;;;;;;5032609;28;20426;-80
2021/07/11 03:38:45;;;;;;;3.50;3.30;;;21.50;41.20;;;;;;5014884;28;20479;-80
2021/07/11 03:41:14;;;;;;;3.87;3.67;;;21.50;41.30;;;;;;5015637;28;20503;-80
2021/07/11 03:43:41;;;;;;;3.47;3.27;;;21.50;41.20;;;;;;5029930;28;20432;-80
2021/07/11 03:46:09;;;;;;;3.50;3.30;;;21.50;41.30;;;;;;5029761;28;20419;-80
2021/07/11 03:49:08;;;;;;;3.90;3.70;;;21.50;41.40;;;;;;5013190;28;21059;-81
2021/07/11 03:55:15;;;;;;;3.43;3.30;;;21.50;41.30;;;;;;5013239;28;20466;-79
2021/07/11 03:57:45;;;;;;;3.80;3.60;;;21.50;41.40;;;;;;4990914;28;20437;-80
2021/07/11 04:00:22;;;;;;;3.53;3.43;;;21.50;41.40;;;;;;4943398;28;20452;-80
2021/07/11 04:02:52;;;;;;;3.60;3.40;;;21.50;41.40;;;;;;4997094;28;20515;-79
2021/07/11 04:05:36;;;;;;;4.10;3.90;;;21.50;41.40;;;;;;5021607;28;20409;-80
2021/07/11 04:08:26;;;;;;;3.27;3.10;;;21.40;41.20;;;;;;5034177;28;21008;-81
2021/07/11 04:11:26;;;;;;;3.47;3.33;;;21.50;41.50;;;;;;5018508;28;20443;-80
2021/07/11 04:14:23;;;;;;;3.30;3.10;;;21.50;41.50;;;;;;5018392;28;20777;-80
2021/07/11 04:17:21;;;;;;;3.50;3.30;;;21.50;41.60;;;;;;5018907;28;20439;-80
2021/07/11 04:20:26;;;;;;;3.33;3.23;;;21.50;41.50;;;;;;5018871;28;20416;-82
2021/07/11 04:22:57;;;;;;;3.23;3.03;;;21.50;41.50;;;;;;5033863;28;20921;-80
2021/07/11 04:25:47;;;;;;;2.90;2.80;;;21.40;41.40;;;;;;5017290;28;20427;-80
2021/07/11 04:28:34;;;;;;;3.20;3.10;;;21.50;41.60;;;;;;5018212;28;20474;-80
2021/07/11 04:31:12;;;;;;;3.37;3.20;;;21.50;41.50;;;;;;5019048;28;20480;-80
2021/07/11 04:33:42;;;;;;;3.90;3.70;;;21.50;41.50;;;;;;5035804;28;20416;-80
2021/07/11 04:36:28;;;;;;;3.03;2.93;;;21.50;41.60;;;;;;4977377;28;20463;-81
2021/07/11 04:39:41;;;;;;;3.30;3.20;;;21.40;41.50;;;;;;5016055;28;20421;-80
2021/07/11 04:42:39;;;;;;;3.40;3.30;;;21.40;41.50;;;;;;5031558;28;20482;-80
2021/07/11 04:45:10;;;;;;;4.03;3.83;;;21.40;41.50;;;;;;5015297;28;20424;-79
2021/07/11 04:47:41;;;;;;;3.37;3.27;;;21.40;41.40;;;;;;5021826;28;20842;-80
2021/07/11 04:53:46;;;;;;;3.67;3.47;;;21.40;41.50;;;;;;5018202;28;20448;-79
2021/07/11 04:56:14;;;;;;;3.30;3.20;;;21.40;41.40;;;;;;5018959;28;20523;-79
2021/07/11 04:58:39;;;;;;;3.83;3.53;;;21.40;41.60;;;;;;5032043;28;20432;-79
2021/07/11 05:01:05;;;;;;;3.80;3.60;;;21.50;41.70;;;;;;5016114;28;20428;-79
2021/07/11 05:03:31;;;;;;;3.00;2.90;;;21.40;41.60;;;;;;5017363;28;20169;-79
2021/07/11 05:05:57;;;;;;;3.03;2.83;;;21.40;41.60;;;;;;5015629;28;20227;-80
2021/07/11 05:08:23;;;;;;;3.73;3.47;;;21.40;41.50;;;;;;5015846;28;20253;-79
2021/07/11 05:10:50;;;;;;;3.97;3.77;;;21.40;41.60;;;;;;5016303;28;20432;-79
2021/07/11 05:13:16;;;;;;;3.30;3.10;;;21.40;41.60;;;;;;5016216;28;20181;-79
2021/07/11 05:15:41;;;;;;;3.03;2.83;;;21.40;41.60;;;;;;5032304;28;20486;-80
2021/07/11 05:18:07;;;;;;;3.13;3.03;;;21.40;41.60;;;;;;5021032;28;20197;-79
2021/07/11 05:20:33;;;;;;;2.80;2.70;;;21.40;41.60;;;;;;5021313;28;20173;-79
2021/07/11 05:22:58;;;;;;;3.40;3.20;;;21.40;41.60;;;;;;5019379;28;20187;-79
2021/07/11 05:25:24;;;;;;;3.20;3.00;;;21.40;41.60;;;;;;5035496;28;20177;-78
2021/07/11 05:27:50;;;;;;;2.80;2.70;;;21.40;41.50;;;;;;5021791;28;20252;-80
2021/07/11 05:30:16;;;;;;;3.10;2.90;;;21.40;41.60;;;;;;5022153;28;20729;-79
2021/07/11 05:32:42;;;;;;;2.93;2.80;;;21.40;41.50;;;;;;5022306;28;20420;-80
2021/07/11 05:35:09;;;;;;;2.80;2.70;;;21.40;41.60;;;;;;5020469;28;20450;-79
2021/07/11 05:37:35;;;;;;;3.03;2.83;;;21.30;41.60;;;;;;5021903;28;20200;-79
2021/07/11 05:40:00;;;;;;;3.03;2.83;;;21.40;41.70;;;;;;5020063;28;20424;-79
2021/07/11 05:42:26;;;;;;;3.07;2.97;;;21.30;41.70;;;;;;5036873;28;20190;-79
2021/07/11 05:44:51;;;;;;;3.30;3.00;;;21.30;41.70;;;;;;5021042;28;20192;-80
2021/07/11 05:47:17;;;;;;;3.13;3.03;;;21.30;41.80;;;;;;5025099;28;20189;-79
2021/07/11 05:49:42;;;;;;;2.70;2.60;;;21.30;41.80;;;;;;5021534;28;20216;-77
2021/07/11 05:52:08;;;;;;;2.83;2.63;;;21.30;41.90;;;;;;5019006;28;20224;-81
2021/07/11 05:54:34;;;;;;;3.07;2.87;;;21.30;41.90;;;;;;5019925;28;20192;-77
2021/07/11 05:56:59;;;;;;;4.80;3.63;;;21.30;42.00;;;;;;5019240;28;20232;-78
2021/07/11 05:59:25;;;;;;;2.80;2.60;;;21.30;42.00;;;;;;5035294;28;20244;-79
2021/07/11 06:01:50;;;;;;;3.00;2.67;;;21.30;42.10;;;;;;5016315;28;20189;-79
2021/07/11 06:04:16;;;;;;;3.53;3.23;;;21.30;42.10;;;;;;5016352;28;20174;-78
2021/07/11 06:06:41;;;;;;;3.30;3.10;;;21.30;42.20;;;;;;5016472;28;20231;-77
2021/07/11 06:09:07;;;;;;;3.10;2.80;;;21.30;42.20;;;;;;5016487;28;20694;-79
2021/07/11 06:11:32;;;;;;;3.30;3.07;;;21.30;42.20;;;;;;5016414;28;20192;-79
2021/07/11 06:13:58;;;;;;;3.27;3.17;;;21.30;42.10;;;;;;5016903;28;20255;-78
2021/07/11 06:16:24;;;;;;;3.33;3.13;;;21.30;42.10;;;;;;5016453;28;20173;-78
2021/07/11 06:18:49;;;;;;;3.90;3.07;;;21.30;42.10;;;;;;5016374;28;20177;-79
2021/07/11 06:21:15;;;;;;;2.70;2.60;;;21.30;42.20;;;;;;5016052;28;20204;-78
2021/07/11 06:23:41;;;;;;;2.73;2.63;;;21.20;42.00;;;;;;5015312;28;20228;-78
2021/07/11 06:26:06;;;;;;;3.37;3.17;;;21.20;42.00;;;;;;5014833;28;20178;-79
2021/07/11 06:28:33;;;;;;;3.40;3.10;;;21.20;41.70;;;;;;5013200;28;20215;-79
2021/07/11 06:30:58;;;;;;;3.77;3.47;;;21.30;41.50;;;;;;5011140;28;20659;-79
2021/07/11 06:36:38;;;;;;;2.90;2.80;;;21.20;42.10;;;;;;4997641;28;20569;-79
2021/07/11 06:39:38;;;;;;;2.70;2.60;;;21.20;41.40;;;;;;4979085;28;20435;-79
2021/07/11 06:42:04;;;;;;;2.77;2.67;;;21.20;41.30;;;;;;5000193;28;20516;-78
2021/07/11 06:44:31;;;;;;;3.30;3.10;;;21.20;41.40;;;;;;5013335;28;20412;-78
2021/07/11 06:46:58;;;;;;;3.47;3.27;;;21.20;41.00;;;;;;5028864;28;20472;-78
2021/07/11 06:49:27;;;;;;;3.33;2.93;;;21.20;40.60;;;;;;5028850;28;20986;-78
2021/07/11 06:51:56;;;;;;;3.27;3.07;;;21.20;40.30;;;;;;5013100;28;20429;-78
2021/07/11 06:54:22;;;;;;;2.70;2.50;;;21.20;40.20;;;;;;5027832;28;20455;-79
2021/07/11 06:56:50;;;;;;;2.63;2.50;;;21.20;39.60;;;;;;5012815;28;20440;-79
2021/07/11 06:59:19;;;;;;;2.80;2.60;;;21.20;39.70;;;;;;5027844;28;20534;-79
2021/07/11 07:02:13;;;;;;;3.17;2.87;;;21.20;39.60;;;;;;4995163;28;20436;-78
2021/07/11 07:04:56;;;;;;;3.13;2.93;;;21.20;39.60;;;;;;5011878;28;20440;-78
2021/07/11 07:07:24;;;;;;;4.30;3.20;;;21.20;39.70;;;;;;5028312;28;20448;-79
2021/07/11 07:09:50;;;;;;;2.90;2.70;;;21.10;39.40;;;;;;5012854;28;20288;-79
2021/07/11 07:12:16;;;;;;;3.57;3.37;;;21.10;39.70;;;;;;5012560;28;20466;-79
2021/07/11 07:14:43;;;;;;;3.30;3.10;;;21.10;39.60;;;;;;5012525;28;20180;-79
2021/07/11 07:17:08;;;;;;;3.00;2.90;;;21.10;40.20;;;;;;5012615;28;20436;-79
2021/07/11 07:19:34;;;;;;;9.50;3.60;;;21.20;40.20;;;;;;5011995;28;20431;-80
2021/07/11 07:21:59;;;;;;;5.23;2.93;;;21.20;40.00;;;;;;5029924;28;20561;-81
2021/07/11 07:24:25;;;;;;;3.30;3.10;;;21.20;39.90;;;;;;5031974;28;20177;-81
2021/07/11 07:26:55;;;;;;;3.20;3.00;;;21.10;39.80;;;;;;5016986;28;20201;-81
2021/07/11 07:29:24;;;;;;;3.40;3.10;;;21.20;40.00;;;;;;5009216;28;20276;-80
2021/07/11 07:31:50;;;;;;;3.07;2.87;;;21.20;40.00;;;;;;5031419;28;20445;-80
2021/07/11 07:34:18;;;;;;;4.87;3.80;;;21.20;40.10;;;;;;5020092;28;20489;-81
2021/07/11 07:36:44;;;;;;;4.57;3.10;;;21.20;40.20;;;;;;5020552;28;20199;-80
2021/07/11 07:39:09;;;;;;;5.30;3.93;;;21.20;40.20;;;;;;5023994;28;20448;-80
2021/07/11 07:41:39;;;;;;;6.40;3.80;;;21.20;40.20;;;;;;5020198;28;20428;-80
2021/07/11 07:44:05;;;;;;;10.50;3.90;;;21.20;40.20;;;;;;5007571;28;20174;-79
2021/07/11 07:46:31;;;;;;;4.33;3.93;;;21.20;40.20;;;;;;5004758;28;20429;-80
2021/07/11 07:48:57;;;;;;;3.70;3.40;;;21.20;40.10;;;;;;5004938;28;20467;-80
2021/07/11 07:51:22;;;;;;;4.60;3.40;;;21.20;40.20;;;;;;5004617;28;20433;-80
2021/07/11 07:53:48;;;;;;;3.60;3.30;;;21.30;40.30;;;;;;5004619;28;20178;-80
2021/07/11 07:56:13;;;;;;;4.33;3.90;;;21.30;40.30;;;;;;5019206;28;20257;-80
2021/07/11 07:58:39;;;;;;;4.43;2.97;;;21.30;40.20;;;;;;5003087;28;20190;-80
2021/07/11 08:01:07;;;;;;;5.07;3.70;;;21.30;40.20;;;;;;5003458;28;20649;-80
2021/07/11 08:03:33;;;;;;;4.50;3.13;;;21.30;40.30;;;;;;5019101;28;20186;-79
2021/07/11 08:05:59;;;;;;;3.63;3.43;;;21.30;40.40;;;;;;5022638;28;20425;-80
2021/07/11 08:08:24;;;;;;;5.10;3.47;;;21.30;40.30;;;;;;5013076;28;20232;-80
2021/07/11 08:10:50;;;;;;;3.77;3.57;;;21.30;40.30;;;;;;5056821;28;20177;-80
2021/07/11 08:13:15;;;;;;;3.70;3.40;;;21.30;40.00;;;;;;5024220;28;20619;-80
2021/07/11 08:15:41;;;;;;;4.07;3.67;;;21.30;40.20;;;;;;5025630;28;20173;-80
2021/07/11 08:18:06;;;;;;;3.83;3.20;;;21.30;40.20;;;;;;5023903;28;20270;-80
2021/07/11 08:20:32;;;;;;;4.27;3.97;;;21.20;40.00;;;;;;5024672;28;20170;-80
2021/07/11 08:22:58;;;;;;;4.17;3.87;;;21.20;40.20;;;;;;5024437;28;20184;-79
2021/07/11 08:25:24;;;;;;;3.57;3.37;;;21.30;40.10;;;;;;5024503;28;20166;-80
2021/07/11 08:27:50;;;;;;;4.83;3.93;;;21.30;40.00;;;;;;5025431;28;20199;-80
2021/07/11 08:30:17;;;;;;;3.50;3.30;;;21.30;39.90;;;;;;5023873;28;20455;-80
2021/07/11 08:32:43;;;;;;;3.50;3.27;;;21.30;39.50;;;;;;5013929;28;20590;-80
2021/07/11 08:35:10;;;;;;;3.10;2.90;;;21.30;39.60;;;;;;5047779;28;20417;-80
2021/07/11 08:37:35;;;;;;;5.60;3.97;;;21.30;39.10;;;;;;5012571;28;20795;-80
2021/07/11 08:40:07;;;;;;;4.00;3.80;;;21.30;39.40;;;;;;5002884;28;20418;-80
2021/07/11 08:42:39;;;;;;;3.90;3.60;;;21.30;39.70;;;;;;5018840;28;20248;-80
2021/07/11 08:45:05;;;;;;;3.67;3.30;;;21.30;40.30;;;;;;5004106;28;20464;-79
2021/07/11 08:47:31;;;;;;;3.20;3.00;;;21.30;39.50;;;;;;5005014;28;20432;-80
2021/07/11 08:49:56;;;;;;;3.10;2.90;;;21.30;38.80;;;;;;5003349;28;20205;-80
2021/07/11 08:52:22;;;;;;;3.60;3.30;;;21.30;38.50;;;;;;5004530;28;20265;-80
2021/07/11 08:54:47;;;;;;;3.20;3.00;;;21.30;39.20;;;;;;5004924;28;20186;-80
2021/07/11 08:57:13;;;;;;;3.40;3.20;;;21.30;39.40;;;;;;5007284;28;20221;-80
2021/07/11 08:59:42;;;;;;;4.07;3.40;;;21.30;39.20;;;;;;5020001;28;20212;-80
2021/07/11 09:02:23;;;;;;;3.20;3.00;;;21.30;39.50;;;;;;5020621;28;20190;-79
2021/07/11 09:04:49;;;;;;;3.23;3.00;;;21.30;38.70;;;;;;5005658;28;20528;-80
2021/07/11 09:07:19;;;;;;;4.00;3.10;;;21.30;39.10;;;;;;5003933;28;20513;-79
2021/07/11 09:09:51;;;;;;;3.67;2.83;;;21.40;39.60;;;;;;5017292;28;20292;-80
2021/07/11 09:12:18;;;;;;;3.20;2.90;;;21.40;39.30;;;;;;5001504;28;20413;-79
2021/07/11 09:14:44;;;;;;;6.50;3.10;;;21.30;39.20;;;;;;5002731;28;20401;-79
2021/07/11 09:17:12;;;;;;;3.13;3.03;;;21.30;39.30;;;;;;5003560;28;20436;-79
2021/07/11 09:19:48;;;;;;;3.57;3.27;;;21.40;39.80;;;;;;5019126;28;20206;-80
2021/07/11 09:22:23;;;;;;;4.13;3.83;;;21.40;39.50;;;;;;5002329;28;20420;-79
2021/07/11 09:24:55;;;;;;;4.33;3.67;;;21.40;39.70;;;;;;5018714;28;20427;-79
2021/07/11 09:27:24;;;;;;;3.67;3.47;;;21.40;39.80;;;;;;5004064;28;20437;-79
2021/07/11 09:29:49;;;;;;;3.30;3.10;;;21.40;39.50;;;;;;5002731;28;20453;-80
2021/07/11 09:32:33;;;;;;;3.80;3.30;;;21.30;38.90;;;;;;5004750;28;20423;-80
2021/07/11 09:35:16;;;;;;;3.60;3.30;;;21.30;39.50;;;;;;5020305;28;20218;-80
2021/07/11 09:37:45;;;;;;;4.73;3.83;;;21.30;39.40;;;;;;5003814;28;20440;-80
2021/07/11 09:40:13;;;;;;;3.63;3.43;;;21.30;39.40;;;;;;5019496;28;20421;-80
2021/07/11 09:42:41;;;;;;;3.33;3.03;;;21.30;39.40;;;;;;5004407;28;20413;-80
2021/07/11 09:45:15;;;;;;;3.33;3.13;;;21.30;39.40;;;;;;5004829;28;20429;-80
2021/07/11 09:47:41;;;;;;;4.47;3.50;;;21.40;39.70;;;;;;5010011;28;20472;-81
2021/07/11 09:50:08;;;;;;;3.70;3.40;;;21.40;40.10;;;;;;5011172;28;20524;-79
2021/07/11 09:52:35;;;;;;;3.70;3.40;;;21.40;39.30;;;;;;5010528;28;20201;-79
2021/07/11 09:55:12;;;;;;;3.87;3.57;;;21.30;39.60;;;;;;5007185;28;20500;-80
2021/07/11 09:57:46;;;;;;;3.17;2.97;;;21.40;39.60;;;;;;5000442;28;20441;-80
2021/07/11 10:00:14;;;;;;;3.73;3.43;;;21.40;39.60;;;;;;5001484;28;20982;-81
2021/07/11 10:02:41;;;;;;;3.43;3.20;;;21.40;39.70;;;;;;4999960;28;20456;-80
2021/07/11 10:05:08;;;;;;;3.60;3.40;;;21.30;38.90;;;;;;5014778;28;20512;-79
2021/07/11 10:07:34;;;;;;;3.13;2.93;;;21.30;39.60;;;;;;5015845;28;20444;-80
2021/07/11 10:10:01;;;;;;;3.10;2.90;;;21.30;39.80;;;;;;4996358;28;20555;-80
2021/07/11 10:12:27;;;;;;;3.83;3.63;;;21.30;39.90;;;;;;4996306;28;20167;-79
2021/07/11 10:14:52;;;;;;;3.97;3.67;;;21.30;40.50;;;;;;4997707;28;20416;-79
2021/07/11 10:17:19;;;;;;;3.27;3.10;;;21.30;40.00;;;;;;4997536;28;20429;-80
2021/07/11 10:19:48;;;;;;;3.07;2.97;;;21.30;40.00;;;;;;5011735;28;20636;-79
2021/07/11 10:22:15;;;;;;;3.27;3.07;;;21.40;40.20;;;;;;4997582;28;20436;-79
2021/07/11 10:24:43;;;;;;;3.80;3.60;;;21.40;40.00;;;;;;5019374;28;20436;-77
2021/07/11 10:27:20;;;;;;;4.00;3.70;;;21.40;40.00;;;;;;5032428;28;20432;-78
2021/07/11 10:29:48;;;;;;;3.90;3.70;;;21.40;40.50;;;;;;5015621;28;20460;-78
2021/07/11 10:32:40;;;;;;;3.20;3.10;;;21.40;40.30;;;;;;5016468;28;20428;-78
2021/07/11 10:35:35;;;;;;;3.90;3.70;;;21.40;39.90;;;;;;5019421;28;20409;-77
2021/07/11 10:38:01;;;;;;;3.60;3.30;;;21.40;40.10;;;;;;4994420;28;20441;-78
2021/07/11 10:41:06;;;;;;;3.57;3.43;;;21.40;40.20;;;;;;4991462;28;20417;-80
2021/07/11 10:47:00;;;;;;;3.73;3.20;;;21.40;40.10;;;;;;4998130;28;20420;-80
2021/07/11 10:49:44;;;;;;;3.27;3.10;;;21.40;40.10;;;;;;5007856;28;20992;-79
2021/07/11 10:52:21;;;;;;;2.83;2.70;;;21.40;40.10;;;;;;5018343;28;20632;-80
2021/07/11 10:55:09;;;;;;;3.23;3.03;;;21.40;40.80;;;;;;5035896;28;20937;-80
2021/07/11 10:57:53;;;;;;;3.40;3.10;;;21.40;40.10;;;;;;5013786;28;20443;-81
2021/07/11 11:00:48;;;;;;;2.80;2.70;;;21.40;40.00;;;;;;5018723;28;20408;-80
2021/07/11 11:03:26;;;;;;;3.57;3.37;;;21.40;40.00;;;;;;4996931;28;20744;-82
2021/07/11 11:06:25;;;;;;;3.50;3.30;;;21.40;40.00;;;;;;5035179;28;20416;-81
2021/07/11 11:08:53;;;;;;;3.13;3.03;;;21.40;39.80;;;;;;5032534;28;20468;-81
2021/07/11 11:18:54;;;;;;;3.07;2.87;;;21.40;39.90;;;;;;5096595;23;20530;-80
2021/07/11 11:21:22;;;;;;;3.27;2.97;;;21.40;39.90;;;;;;5020612;28;20430;-81
2021/07/11 11:23:57;;;;;;;3.07;2.87;;;21.40;39.90;;;;;;5002658;28;20427;-81
2021/07/11 11:26:25;;;;;;;2.80;2.60;;;21.40;39.80;;;;;;5018798;28;20424;-80
2021/07/11 11:28:54;;;;;;;2.77;2.67;;;21.40;39.90;;;;;;5019219;28;20471;-81
2021/07/11 11:31:27;;;;;;;2.80;2.70;;;21.40;39.90;;;;;;5018255;28;20433;-81
2021/07/11 11:34:06;;;;;;;3.13;2.93;;;21.40;39.60;;;;;;5018908;28;20420;-81
2021/07/11 11:36:48;;;;;;;3.07;2.87;;;21.40;39.50;;;;;;5021320;28;20813;-81
2021/07/11 11:39:46;;;;;;;2.63;2.53;;;21.40;39.50;;;;;;5018676;28;20432;-81
2021/07/11 11:42:11;;;;;;;3.13;2.93;;;21.40;39.60;;;;;;5000909;28;20507;-81
2021/07/11 11:44:37;;;;;;;3.07;2.87;;;21.40;39.50;;;;;;5012081;28;20453;-80
2021/07/11 11:47:03;;;;;;;3.13;3.03;;;21.40;39.60;;;;;;4991583;28;20265;-81
2021/07/11 11:49:34;;;;;;;2.77;2.67;;;21.40;39.60;;;;;;5016978;28;20204;-81
2021/07/11 11:52:05;;;;;;;2.90;2.80;;;21.40;39.60;;;;;;4975063;28;20425;-81
2021/07/11 11:54:42;;;;;;;3.17;2.97;;;21.40;39.50;;;;;;4989446;28;20431;-81
2021/07/11 11:57:11;;;;;;;2.70;2.60;;;21.40;39.40;;;;;;4997458;28;20811;-81
2021/07/11 11:59:38;;;;;;;2.57;2.37;;;21.40;39.50;;;;;;5001961;28;20429;-80
2021/07/11 12:02:11;;;;;;;2.90;2.80;;;21.40;39.40;;;;;;5019624;28;20435;-81
2021/07/11 12:04:43;;;;;;;2.90;2.80;;;21.40;39.40;;;;;;5012290;28;20432;-81
2021/07/11 12:07:12;;;;;;;2.60;2.50;;;21.40;39.40;;;;;;5016710;28;20455;-81
2021/07/11 12:09:41;;;;;;;3.27;3.10;;;21.40;39.60;;;;;;4997314;28;20475;-81
2021/07/11 12:12:09;;;;;;;2.70;2.60;;;21.40;39.50;;;;;;5002638;28;20431;-80
2021/07/11 12:14:40;;;;;;;2.90;2.80;;;21.40;40.20;;;;;;5019336;28;20805;-80
2021/07/11 12:17:17;;;;;;;2.80;2.70;;;21.40;39.50;;;;;;5018949;28;20453;-81
2021/07/11 12:20:03;;;;;;;4.60;3.00;;;21.40;39.60;;;;;;5017779;28;20918;-81
2021/07/11 12:22:33;;;;;;;3.00;2.90;;;21.40;39.40;;;;;;5019230;28;20417;-81
2021/07/11 12:25:31;;;;;;;2.60;2.50;;;21.40;39.40;;;;;;5019997;28;20423;-81
2021/07/11 12:28:02;;;;;;;2.77;2.67;;;21.40;39.40;;;;;;5009027;28;20447;-80
2021/07/11 12:30:46;;;;;;;3.10;2.90;;;21.40;39.40;;;;;;5025208;28;20412;-81
2021/07/11 12:33:33;;;;;;;2.97;2.67;;;21.40;39.40;;;;;;4998241;28;20515;-81
2021/07/11 12:36:11;;;;;;;2.50;2.40;;;21.40;39.50;;;;;;5016182;28;20499;-81
2021/07/11 12:38:38;;;;;;;2.63;2.53;;;21.40;39.60;;;;;;5001960;28;20460;-81
2021/07/11 12:41:14;;;;;;;3.00;2.90;;;21.40;39.60;;;;;;5020902;28;20436;-81
2021/07/11 12:43:51;;;;;;;2.70;2.60;;;21.40;39.60;;;;;;5021813;28;20449;-80
2021/07/11 12:46:23;;;;;;;2.77;2.67;;;21.40;39.70;;;;;;5023479;28;20485;-80
2021/07/11 12:48:51;;;;;;;2.80;2.70;;;21.40;39.60;;;;;;5021904;28;20523;-81
2021/07/11 12:51:31;;;;;;;2.67;2.57;;;21.40;39.70;;;;;;5021106;28;20428;-81
2021/07/11 12:54:02;;;;;;;3.83;3.53;;;21.40;39.60;;;;;;5020469;28;20405;-80
2021/07/11 12:56:29;;;;;;;3.00;2.90;;;21.40;39.50;;;;;;5001920;28;20503;-79
2021/07/11 12:59:02;;;;;;;2.90;2.80;;;21.40;39.60;;;;;;5017189;28;20819;-81
2021/07/11 13:01:28;;;;;;;2.87;2.77;;;21.40;39.60;;;;;;5018244;28;20494;-81
2021/07/11 13:03:59;;;;;;;3.00;2.90;;;21.40;39.60;;;;;;5019758;28;20429;-81
2021/07/11 13:06:33;;;;;;;2.73;2.63;;;21.40;39.60;;;;;;5017137;28;20218;-81
2021/07/11 13:09:04;;;;;;;2.70;2.60;;;21.40;40.10;;;;;;5017505;28;20464;-81
2021/07/11 13:11:30;;;;;;;2.87;2.77;;;21.40;39.40;;;;;;5015692;28;20907;-81
2021/07/11 13:13:55;;;;;;;3.50;3.30;;;21.40;39.50;;;;;;5016306;28;20477;-81
2021/07/11 13:16:21;;;;;;;2.47;2.37;;;21.40;39.60;;;;;;5016741;28;20280;-80
2021/07/11 13:19:15;;;;;;;2.90;2.80;;;21.40;39.60;;;;;;5017828;28;20193;-80
2021/07/11 13:21:52;;;;;;;3.07;2.97;;;21.40;39.60;;;;;;5017770;28;20215;-81
2021/07/11 13:24:18;;;;;;;3.13;3.03;;;21.40;39.50;;;;;;5017478;28;20420;-81
2021/07/11 13:26:45;;;;;;;2.90;2.80;;;21.40;39.60;;;;;;5016303;28;20444;-81
2021/07/11 13:29:50;;;;;;;2.90;2.80;;;21.40;39.40;;;;;;5000215;28;20539;-82
2021/07/11 13:32:21;;;;;;;2.80;2.70;;;21.40;39.60;;;;;;5015764;28;20471;-79
2021/07/11 13:34:51;;;;;;;3.30;3.20;;;21.40;39.40;;;;;;4996789;28;21013;-80
2021/07/11 13:37:18;;;;;;;3.60;3.40;;;21.40;39.50;;;;;;4998094;28;20452;-80
2021/07/11 13:39:44;;;;;;;3.30;3.10;;;21.40;39.50;;;;;;5014347;28;20486;-80
2021/07/11 13:42:10;;;;;;;3.00;2.80;;;21.40;39.60;;;;;;5022001;28;20821;-82
2021/07/11 13:44:37;;;;;;;3.10;3.00;;;21.40;39.80;;;;;;5013669;28;20186;-80
2021/07/11 13:47:03;;;;;;;2.83;2.70;;;21.40;39.70;;;;;;5012436;28;20460;-81
2021/07/11 13:49:46;;;;;;;2.87;2.77;;;21.40;39.80;;;;;;4945193;28;20468;-80